sensor_id;sensor_type;location;lat;lon;timestamp;pressure;altitude;pressure_sealevel;temperature;humidity
73316;BME280;61545;53.726;-0.444;2023-04-26T00:02:57;1016.1;;;4.7;100.0
73316;BME280;61545;53.726;-0.444;2023-04-26T00:07:57;1016.1;;;4.7;100.0
73316;BME280;61545;53.726;-0.444;2023-04-26T00:12:57;1016.1;;;4.7;100.0
73316;BME280;61545;53.726;-0.444;2023-04-26T00:17:56;1016.1;;;4.7;100.0
73316;BME280;61545;53.726;-0.444;2023-04-26T00:22:54;1016.1;;;4.8;100.0
73316;BME280;61545;53.726;-0.444;2023-04-26T00:27:54;1016.1;;;4.8;100.0
73316;BME280;61545;53.726;-0.444;2023-04-26T00:32:54;1016.1;;;4.8;100.0
73316;BME280;61545;53.726;-0.444;2023-04-26T00:37:57;1016.1;;;4.8;100.0
73316;BME280;61545;53.726;-0.444;2023-04-26T00:42:58;1016.1;;;4.8;100.0
73316;BME280;61545;53.726;-0.444;2023-04-26T00:47:54;1016.0;;;4.8;100.0
73316;BME280;61545;53.726;-0.444;2023-04-26T00:52:54;1016.0;;;4.8;100.0
73316;BME280;61545;53.726;-0.444;2023-04-26T01:02:57;1015.9;;;4.8;100.0
73316;BME280;61545;53.726;-0.444;2023-04-26T01:07:57;1015.9;;;5.0;100.0
73316;BME280;61545;53.726;-0.444;2023-04-26T01:12:59;1015.8;;;5.1;100.0
73316;BME280;61545;53.726;-0.444;2023-04-26T01:17:57;1015.8;;;5.0;100.0
73316;BME280;61545;53.726;-0.444;2023-04-26T01:22:57;1015.8;;;5.0;100.0
73316;BME280;61545;53.726;-0.444;2023-04-26T01:27:57;1015.8;;;5.2;100.0
73316;BME280;61545;53.726;-0.444;2023-04-26T01:32:54;1015.7;;;5.2;100.0
73316;BME280;61545;53.726;-0.444;2023-04-26T01:37:57;1015.6;;;5.1;100.0
73316;BME280;61545;53.726;-0.444;2023-04-26T01:42:57;1015.5;;;4.9;100.0
73316;BME280;61545;53.726;-0.444;2023-04-26T01:47:57;1015.4;;;4.8;100.0
73316;BME280;61545;53.726;-0.444;2023-04-26T02:02:57;1015.4;;;4.6;100.0
73316;BME280;61545;53.726;-0.444;2023-04-26T02:07:57;1015.3;;;4.5;100.0
73316;BME280;61545;53.726;-0.444;2023-04-26T02:12:54;1015.2;;;4.4;100.0
73316;BME280;61545;53.726;-0.444;2023-04-26T02:17:54;1015.2;;;4.5;100.0
73316;BME280;61545;53.726;-0.444;2023-04-26T02:22:54;1015.2;;;4.4;100.0
73316;BME280;61545;53.726;-0.444;2023-04-26T02:27:57;1015.1;;;4.4;100.0
73316;BME280;61545;53.726;-0.444;2023-04-26T02:32:54;1015.1;;;4.3;100.0
73316;BME280;61545;53.726;-0.444;2023-04-26T02:37:57;1015.1;;;4.4;100.0
73316;BME280;61545;53.726;-0.444;2023-04-26T02:42:54;1015.0;;;4.4;100.0
73316;BME280;61545;53.726;-0.444;2023-04-26T02:52:57;1014.9;;;4.6;100.0
73316;BME280;61545;53.726;-0.444;2023-04-26T02:57:54;1014.9;;;4.5;100.0
73316;BME280;61545;53.726;-0.444;2023-04-26T03:07:57;1014.9;;;4.2;100.0
73316;BME280;61545;53.726;-0.444;2023-04-26T03:12:57;1014.9;;;4.3;100.0
73316;BME280;61545;53.726;-0.444;2023-04-26T03:17:57;1014.8;;;4.4;100.0
73316;BME280;61545;53.726;-0.444;2023-04-26T03:22:57;1014.8;;;4.3;100.0
73316;BME280;61545;53.726;-0.444;2023-04-26T03:27:57;1014.7;;;4.3;100.0
73316;BME280;61545;53.726;-0.444;2023-04-26T03:32:54;1014.7;;;4.3;100.0
73316;BME280;61545;53.726;-0.444;2023-04-26T03:37:54;1014.6;;;4.4;100.0
73316;BME280;61545;53.726;-0.444;2023-04-26T03:52:57;1014.5;;;4.5;100.0
73316;BME280;61545;53.726;-0.444;2023-04-26T03:57:57;1014.5;;;4.5;100.0
73316;BME280;61545;53.726;-0.444;2023-04-26T04:02:57;1014.5;;;4.7;100.0
73316;BME280;61545;53.726;-0.444;2023-04-26T04:07:57;1014.6;;;4.7;100.0
73316;BME280;61545;53.726;-0.444;2023-04-26T04:17:57;1014.6;;;4.8;100.0
73316;BME280;61545;53.726;-0.444;2023-04-26T04:22:57;1014.7;;;4.8;100.0
73316;BME280;61545;53.726;-0.444;2023-04-26T04:27:57;1014.7;;;4.9;100.0
73316;BME280;61545;53.726;-0.444;2023-04-26T04:32:57;1014.7;;;5.0;100.0
73316;BME280;61545;53.726;-0.444;2023-04-26T04:37:57;1014.6;;;5.0;100.0
73316;BME280;61545;53.726;-0.444;2023-04-26T04:42:57;1014.6;;;4.8;100.0
73316;BME280;61545;53.726;-0.444;2023-04-26T04:47:57;1014.6;;;5.0;100.0
73316;BME280;61545;53.726;-0.444;2023-04-26T04:57:54;1014.6;;;5.0;100.0
73316;BME280;61545;53.726;-0.444;2023-04-26T05:02:54;1014.6;;;5.2;100.0
73316;BME280;61545;53.726;-0.444;2023-04-26T05:12:57;1014.6;;;5.0;100.0
73316;BME280;61545;53.726;-0.444;2023-04-26T05:17:57;1014.6;;;5.0;100.0
73316;BME280;61545;53.726;-0.444;2023-04-26T05:22:54;1014.7;;;5.1;100.0
73316;BME280;61545;53.726;-0.444;2023-04-26T05:32:57;1014.7;;;5.1;100.0
73316;BME280;61545;53.726;-0.444;2023-04-26T05:37:54;1014.7;;;5.2;100.0
73316;BME280;61545;53.726;-0.444;2023-04-26T05:42:54;1014.7;;;5.2;100.0
73316;BME280;61545;53.726;-0.444;2023-04-26T05:47:54;1014.7;;;5.3;100.0
73316;BME280;61545;53.726;-0.444;2023-04-26T05:52:55;1014.7;;;5.4;100.0
73316;BME280;61545;53.726;-0.444;2023-04-26T05:57:57;1014.7;;;5.6;100.0
73316;BME280;61545;53.726;-0.444;2023-04-26T06:02:55;1014.7;;;5.9;100.0
73316;BME280;61545;53.726;-0.444;2023-04-26T06:07:54;1014.7;;;6.2;100.0
73316;BME280;61545;53.726;-0.444;2023-04-26T06:12:54;1014.7;;;6.1;100.0
73316;BME280;61545;53.726;-0.444;2023-04-26T06:17:56;1014.7;;;6.5;100.0
73316;BME280;61545;53.726;-0.444;2023-04-26T06:22:56;1014.7;;;6.5;100.0
73316;BME280;61545;53.726;-0.444;2023-04-26T06:27:54;1014.7;;;7.0;100.0
73316;BME280;61545;53.726;-0.444;2023-04-26T06:32:57;1014.7;;;8.2;100.0
73316;BME280;61545;53.726;-0.444;2023-04-26T06:37:57;1014.6;;;7.3;100.0
73316;BME280;61545;53.726;-0.444;2023-04-26T06:42:57;1014.7;;;6.9;100.0
73316;BME280;61545;53.726;-0.444;2023-04-26T06:47:54;1014.7;;;6.8;100.0
73316;BME280;61545;53.726;-0.444;2023-04-26T06:52:57;1014.7;;;6.8;100.0
73316;BME280;61545;53.726;-0.444;2023-04-26T07:02:57;1014.7;;;7.6;100.0
73316;BME280;61545;53.726;-0.444;2023-04-26T07:07:57;1014.7;;;7.3;100.0
73316;BME280;61545;53.726;-0.444;2023-04-26T07:12:57;1014.6;;;8.4;100.0
73316;BME280;61545;53.726;-0.444;2023-04-26T07:17:57;1014.7;;;7.7;100.0
73316;BME280;61545;53.726;-0.444;2023-04-26T07:22:57;1014.7;;;7.6;100.0
73316;BME280;61545;53.726;-0.444;2023-04-26T07:32:57;1014.7;;;7.7;100.0
73316;BME280;61545;53.726;-0.444;2023-04-26T07:37:57;1014.7;;;7.4;100.0
73316;BME280;61545;53.726;-0.444;2023-04-26T07:47:54;1014.7;;;7.0;100.0
73316;BME280;61545;53.726;-0.444;2023-04-26T07:52:56;1014.7;;;7.0;100.0
73316;BME280;61545;53.726;-0.444;2023-04-26T07:57:57;1014.6;;;7.0;100.0
73316;BME280;61545;53.726;-0.444;2023-04-26T08:02:57;1014.6;;;7.0;100.0
73316;BME280;61545;53.726;-0.444;2023-04-26T08:07:54;1014.6;;;7.1;100.0
73316;BME280;61545;53.726;-0.444;2023-04-26T08:12:54;1014.7;;;7.2;100.0
73316;BME280;61545;53.726;-0.444;2023-04-26T08:22:54;1014.6;;;7.2;100.0
73316;BME280;61545;53.726;-0.444;2023-04-26T08:27:54;1014.6;;;7.4;100.0
73316;BME280;61545;53.726;-0.444;2023-04-26T08:32:56;1014.5;;;8.0;100.0
73316;BME280;61545;53.726;-0.444;2023-04-26T08:37:54;1014.4;;;8.9;100.0
73316;BME280;61545;53.726;-0.444;2023-04-26T08:42:54;1014.5;;;10.4;100.0
73316;BME280;61545;53.726;-0.444;2023-04-26T08:47:58;1014.3;;;10.8;100.0
73316;BME280;61545;53.726;-0.444;2023-04-26T08:52:54;1014.4;;;11.7;100.0
73316;BME280;61545;53.726;-0.444;2023-04-26T08:57:54;1014.3;;;12.0;100.0
73316;BME280;61545;53.726;-0.444;2023-04-26T09:02:54;1014.3;;;12.0;100.0
73316;BME280;61545;53.726;-0.444;2023-04-26T09:07:55;1014.2;;;11.6;100.0
73316;BME280;61545;53.726;-0.444;2023-04-26T09:12:54;1014.2;;;12.6;100.0
73316;BME280;61545;53.726;-0.444;2023-04-26T09:17:54;1014.2;;;12.9;100.0
73316;BME280;61545;53.726;-0.444;2023-04-26T09:23:03;1014.2;;;12.4;100.0
73316;BME280;61545;53.726;-0.444;2023-04-26T09:27:54;1014.2;;;12.4;100.0
73316;BME280;61545;53.726;-0.444;2023-04-26T09:32:59;1014.1;;;13.4;100.0
73316;BME280;61545;53.726;-0.444;2023-04-26T09:37:55;1014.1;;;12.8;100.0
73316;BME280;61545;53.726;-0.444;2023-04-26T09:42:58;1014.1;;;13.0;100.0
73316;BME280;61545;53.726;-0.444;2023-04-26T09:48:12;1014.1;;;unknown;100.0
73316;BME280;61545;53.726;-0.444;2023-04-26T09:52:56;1014.1;;;13.5;100.0
73316;BME280;61545;53.726;-0.444;2023-04-26T09:57:55;1014.1;;;12.7;100.0
73316;BME280;61545;53.726;-0.444;2023-04-26T10:02:59;1014.0;;;12.6;100.0
73316;BME280;61545;53.726;-0.444;2023-04-26T10:07:59;1013.9;;;12.9;100.0
73316;BME280;61545;53.726;-0.444;2023-04-26T10:12:54;1013.9;;;13.1;100.0
73316;BME280;61545;53.726;-0.444;2023-04-26T10:22:58;1013.8;;;12.4;100.0
73316;BME280;61545;53.726;-0.444;2023-04-26T10:27:54;1013.8;;;12.5;100.0
73316;BME280;61545;53.726;-0.444;2023-04-26T10:38:15;1013.8;;;11.4;100.0
73316;BME280;61545;53.726;-0.444;2023-04-26T10:43:26;1013.7;;;11.9;100.0
73316;BME280;61545;53.726;-0.444;2023-04-26T10:48:15;1013.7;;;12.2;100.0
73316;BME280;61545;53.726;-0.444;2023-04-26T10:53:12;1013.7;;;12.7;100.0
73316;BME280;61545;53.726;-0.444;2023-04-26T10:57:57;1013.6;;;13.3;100.0
73316;BME280;61545;53.726;-0.444;2023-04-26T11:08:02;1013.5;;;12.7;100.0
73316;BME280;61545;53.726;-0.444;2023-04-26T11:13:04;1013.5;;;13.0;100.0
73316;BME280;61545;53.726;-0.444;2023-04-26T11:17:54;1013.4;;;13.3;100.0
73316;BME280;61545;53.726;-0.444;2023-04-26T11:28:01;1013.4;;;11.9;100.0
73316;BME280;61545;53.726;-0.444;2023-04-26T11:32:54;1013.4;;;11.4;100.0
73316;BME280;61545;53.726;-0.444;2023-04-26T11:37:57;1013.4;;;11.2;100.0
73316;BME280;61545;53.726;-0.444;2023-04-26T11:42:57;1013.4;;;10.9;100.0
73316;BME280;61545;53.726;-0.444;2023-04-26T11:47:57;1013.4;;;10.9;100.0
73316;BME280;61545;53.726;-0.444;2023-04-26T11:52:54;1013.3;;;11.0;100.0
73316;BME280;61545;53.726;-0.444;2023-04-26T11:57:54;1013.3;;;11.0;100.0
73316;BME280;61545;53.726;-0.444;2023-04-26T12:02:54;1013.3;;;10.9;100.0
73316;BME280;61545;53.726;-0.444;2023-04-26T12:07:55;1013.3;;;10.8;100.0
73316;BME280;61545;53.726;-0.444;2023-04-26T12:12:57;1013.4;;;10.9;100.0
73316;BME280;61545;53.726;-0.444;2023-04-26T12:17:58;1013.3;;;10.8;100.0
73316;BME280;61545;53.726;-0.444;2023-04-26T12:23:04;1013.3;;;11.1;100.0
73316;BME280;61545;53.726;-0.444;2023-04-26T12:27:56;1013.3;;;11.0;100.0
73316;BME280;61545;53.726;-0.444;2023-04-26T12:32:56;1013.4;;;11.3;100.0
73316;BME280;61545;53.726;-0.444;2023-04-26T12:37:54;1013.4;;;11.4;100.0
73316;BME280;61545;53.726;-0.444;2023-04-26T12:42:57;1013.3;;;10.9;100.0
73316;BME280;61545;53.726;-0.444;2023-04-26T12:47:54;1013.4;;;10.8;100.0
73316;BME280;61545;53.726;-0.444;2023-04-26T12:52:54;1013.4;;;10.7;100.0
73316;BME280;61545;53.726;-0.444;2023-04-26T12:57:56;1013.5;;;10.5;100.0
73316;BME280;61545;53.726;-0.444;2023-04-26T13:02:54;1013.5;;;10.5;100.0
73316;BME280;61545;53.726;-0.444;2023-04-26T13:07:54;1013.5;;;10.5;100.0
73316;BME280;61545;53.726;-0.444;2023-04-26T13:12:56;1013.6;;;10.2;100.0
73316;BME280;61545;53.726;-0.444;2023-04-26T13:17:56;1013.6;;;10.2;100.0
73316;BME280;61545;53.726;-0.444;2023-04-26T13:22:54;1013.6;;;10.2;100.0
73316;BME280;61545;53.726;-0.444;2023-04-26T13:27:56;1013.7;;;10.1;100.0
73316;BME280;61545;53.726;-0.444;2023-04-26T13:32:56;1013.7;;;10.0;100.0
73316;BME280;61545;53.726;-0.444;2023-04-26T13:37:56;1013.7;;;10.0;100.0
73316;BME280;61545;53.726;-0.444;2023-04-26T13:42:54;1013.7;;;10.0;100.0
73316;BME280;61545;53.726;-0.444;2023-04-26T13:47:56;1013.8;;;unknown;100.0
73316;BME280;61545;53.726;-0.444;2023-04-26T13:57:54;1013.8;;;10.0;100.0
73316;BME280;61545;53.726;-0.444;2023-04-26T14:02:54;1013.8;;;9.9;100.0
73316;BME280;61545;53.726;-0.444;2023-04-26T14:07:57;1013.8;;;9.9;100.0
73316;BME280;61545;53.726;-0.444;2023-04-26T14:13:12;1013.8;;;9.9;100.0
73316;BME280;61545;53.726;-0.444;2023-04-26T14:17:56;1013.8;;;9.9;100.0
73316;BME280;61545;53.726;-0.444;2023-04-26T14:22:54;1013.8;;;9.9;100.0
73316;BME280;61545;53.726;-0.444;2023-04-26T14:27:59;1013.8;;;9.9;100.0
73316;BME280;61545;53.726;-0.444;2023-04-26T14:32:57;1013.7;;;9.9;100.0
73316;BME280;61545;53.726;-0.444;2023-04-26T14:37:56;1013.7;;;9.9;100.0
73316;BME280;61545;53.726;-0.444;2023-04-26T14:42:57;1013.7;;;9.9;100.0
73316;BME280;61545;53.726;-0.444;2023-04-26T14:47:57;1013.8;;;9.9;100.0
73316;BME280;61545;53.726;-0.444;2023-04-26T14:52:59;1013.8;;;10.0;100.0
73316;BME280;61545;53.726;-0.444;2023-04-26T14:57:54;1013.7;;;9.9;100.0
73316;BME280;61545;53.726;-0.444;2023-04-26T15:02:56;1013.8;;;9.9;100.0
73316;BME280;61545;53.726;-0.444;2023-04-26T15:07:57;1013.7;;;9.9;100.0
73316;BME280;61545;53.726;-0.444;2023-04-26T15:12:58;1013.7;;;9.9;100.0
73316;BME280;61545;53.726;-0.444;2023-04-26T15:17:54;1013.7;;;10.0;100.0
73316;BME280;61545;53.726;-0.444;2023-04-26T15:22:57;1013.6;;;10.0;100.0
73316;BME280;61545;53.726;-0.444;2023-04-26T15:27:56;1013.7;;;10.0;100.0
73316;BME280;61545;53.726;-0.444;2023-04-26T15:32:54;1013.7;;;10.0;100.0
73316;BME280;61545;53.726;-0.444;2023-04-26T15:37:57;1013.6;;;9.9;100.0
73316;BME280;61545;53.726;-0.444;2023-04-26T15:42:57;1013.6;;;10.0;100.0
73316;BME280;61545;53.726;-0.444;2023-04-26T15:48:05;1013.5;;;10.0;100.0
73316;BME280;61545;53.726;-0.444;2023-04-26T15:52:57;1013.5;;;10.0;100.0
73316;BME280;61545;53.726;-0.444;2023-04-26T15:57:57;1013.5;;;10.1;100.0
73316;BME280;61545;53.726;-0.444;2023-04-26T16:03:05;1013.5;;;10.2;100.0
73316;BME280;61545;53.726;-0.444;2023-04-26T16:08:08;1013.5;;;10.3;100.0
73316;BME280;61545;53.726;-0.444;2023-04-26T16:12:59;1013.5;;;10.7;100.0
73316;BME280;61545;53.726;-0.444;2023-04-26T16:17:56;1013.4;;;10.9;100.0
73316;BME280;61545;53.726;-0.444;2023-04-26T16:22:56;1013.4;;;11.0;100.0
73316;BME280;61545;53.726;-0.444;2023-04-26T16:27:54;1013.4;;;10.7;100.0
73316;BME280;61545;53.726;-0.444;2023-04-26T16:32:59;1013.4;;;10.6;100.0
73316;BME280;61545;53.726;-0.444;2023-04-26T16:37:58;1013.4;;;10.7;100.0
73316;BME280;61545;53.726;-0.444;2023-04-26T16:43:06;1013.5;;;10.5;100.0
73316;BME280;61545;53.726;-0.444;2023-04-26T16:48:04;1013.5;;;10.4;100.0
73316;BME280;61545;53.726;-0.444;2023-04-26T16:52:54;1013.5;;;10.5;100.0
73316;BME280;61545;53.726;-0.444;2023-04-26T16:57:56;1013.5;;;10.3;100.0
73316;BME280;61545;53.726;-0.444;2023-04-26T17:02:58;1013.5;;;10.3;100.0
73316;BME280;61545;53.726;-0.444;2023-04-26T17:07:54;1013.5;;;10.2;100.0
73316;BME280;61545;53.726;-0.444;2023-04-26T17:12:56;1013.5;;;10.2;100.0
73316;BME280;61545;53.726;-0.444;2023-04-26T17:17:59;1013.5;;;10.2;100.0
73316;BME280;61545;53.726;-0.444;2023-04-26T17:22:56;1013.5;;;10.2;100.0
73316;BME280;61545;53.726;-0.444;2023-04-26T17:27:56;1013.5;;;10.2;100.0
73316;BME280;61545;53.726;-0.444;2023-04-26T17:32:57;1013.6;;;10.2;100.0
73316;BME280;61545;53.726;-0.444;2023-04-26T17:37:59;1013.6;;;10.3;100.0
73316;BME280;61545;53.726;-0.444;2023-04-26T17:42:58;1013.5;;;10.5;100.0
73316;BME280;61545;53.726;-0.444;2023-04-26T17:47:57;1013.5;;;10.5;100.0
73316;BME280;61545;53.726;-0.444;2023-04-26T17:53:07;1013.5;;;10.4;100.0
73316;BME280;61545;53.726;-0.444;2023-04-26T17:57:56;1013.5;;;10.3;100.0
73316;BME280;61545;53.726;-0.444;2023-04-26T18:02:55;1013.5;;;10.3;100.0
73316;BME280;61545;53.726;-0.444;2023-04-26T18:07:59;1013.5;;;10.3;100.0
73316;BME280;61545;53.726;-0.444;2023-04-26T18:13:17;1013.5;;;10.3;100.0
73316;BME280;61545;53.726;-0.444;2023-04-26T18:17:57;1013.5;;;10.2;100.0
73316;BME280;61545;53.726;-0.444;2023-04-26T18:22:57;1013.5;;;10.2;100.0
73316;BME280;61545;53.726;-0.444;2023-04-26T18:27:57;1013.4;;;10.0;100.0
73316;BME280;61545;53.726;-0.444;2023-04-26T18:33:11;1013.5;;;9.8;100.0
73316;BME280;61545;53.726;-0.444;2023-04-26T18:37:57;1013.5;;;9.7;100.0
73316;BME280;61545;53.726;-0.444;2023-04-26T18:52:57;1013.5;;;9.2;100.0
73316;BME280;61545;53.726;-0.444;2023-04-26T19:08:07;1013.5;;;8.9;100.0
73316;BME280;61545;53.726;-0.444;2023-04-26T19:13:12;1013.6;;;8.9;100.0
73316;BME280;61545;53.726;-0.444;2023-04-26T19:17:55;1013.5;;;8.7;100.0
73316;BME280;61545;53.726;-0.444;2023-04-26T19:22:59;1013.6;;;8.6;100.0
73316;BME280;61545;53.726;-0.444;2023-04-26T19:27:59;1013.7;;;8.4;100.0
73316;BME280;61545;53.726;-0.444;2023-04-26T19:32:57;1013.7;;;8.6;100.0
73316;BME280;61545;53.726;-0.444;2023-04-26T19:38:18;1013.7;;;8.5;100.0
73316;BME280;61545;53.726;-0.444;2023-04-26T19:42:56;1013.8;;;8.5;100.0
73316;BME280;61545;53.726;-0.444;2023-04-26T19:47:58;1013.9;;;8.4;100.0
73316;BME280;61545;53.726;-0.444;2023-04-26T19:52:59;1013.9;;;8.5;100.0
73316;BME280;61545;53.726;-0.444;2023-04-26T19:57:56;1013.9;;;8.5;100.0
73316;BME280;61545;53.726;-0.444;2023-04-26T20:02:59;1014.0;;;8.2;100.0
73316;BME280;61545;53.726;-0.444;2023-04-26T20:12:54;1014.0;;;8.2;100.0
73316;BME280;61545;53.726;-0.444;2023-04-26T20:17:57;1014.1;;;8.1;100.0
73316;BME280;61545;53.726;-0.444;2023-04-26T20:23:05;1014.0;;;8.0;100.0
73316;BME280;61545;53.726;-0.444;2023-04-26T20:27:57;1014.1;;;7.9;100.0
73316;BME280;61545;53.726;-0.444;2023-04-26T20:32:57;1014.1;;;7.8;100.0
73316;BME280;61545;53.726;-0.444;2023-04-26T20:38:18;1014.2;;;7.8;100.0
73316;BME280;61545;53.726;-0.444;2023-04-26T20:42:58;1014.2;;;7.8;100.0
73316;BME280;61545;53.726;-0.444;2023-04-26T20:47:54;1014.1;;;7.6;100.0
73316;BME280;61545;53.726;-0.444;2023-04-26T20:52:58;1014.1;;;7.8;100.0
73316;BME280;61545;53.726;-0.444;2023-04-26T20:58:08;1014.2;;;7.7;100.0
73316;BME280;61545;53.726;-0.444;2023-04-26T21:03:14;1014.3;;;7.7;100.0
73316;BME280;61545;53.726;-0.444;2023-04-26T21:07:57;1014.3;;;7.7;100.0
73316;BME280;61545;53.726;-0.444;2023-04-26T21:13:06;1014.3;;;7.6;100.0
73316;BME280;61545;53.726;-0.444;2023-04-26T21:17:57;1014.4;;;7.5;100.0
73316;BME280;61545;53.726;-0.444;2023-04-26T21:32:56;1014.5;;;7.2;100.0
73316;BME280;61545;53.726;-0.444;2023-04-26T21:37:54;1014.6;;;7.0;100.0
73316;BME280;61545;53.726;-0.444;2023-04-26T21:42:57;1014.6;;;7.0;100.0
73316;BME280;61545;53.726;-0.444;2023-04-26T21:47:57;1014.6;;;7.0;100.0
73316;BME280;61545;53.726;-0.444;2023-04-26T22:03:09;1014.7;;;7.0;100.0
73316;BME280;61545;53.726;-0.444;2023-04-26T22:07:56;1014.8;;;6.8;100.0
73316;BME280;61545;53.726;-0.444;2023-04-26T22:12:56;1014.8;;;6.7;100.0
73316;BME280;61545;53.726;-0.444;2023-04-26T22:22:54;1014.9;;;6.5;100.0
73316;BME280;61545;53.726;-0.444;2023-04-26T22:27:54;1014.8;;;6.5;100.0
73316;BME280;61545;53.726;-0.444;2023-04-26T22:32:57;1014.9;;;6.7;100.0
73316;BME280;61545;53.726;-0.444;2023-04-26T22:38:08;1015.0;;;6.6;100.0
73316;BME280;61545;53.726;-0.444;2023-04-26T22:42:55;1014.9;;;6.5;100.0
73316;BME280;61545;53.726;-0.444;2023-04-26T22:47:56;1014.8;;;6.3;100.0
73316;BME280;61545;53.726;-0.444;2023-04-26T22:52:54;1014.9;;;6.3;100.0
73316;BME280;61545;53.726;-0.444;2023-04-26T22:57:59;1014.9;;;6.2;100.0
73316;BME280;61545;53.726;-0.444;2023-04-26T23:02:54;1014.9;;;6.2;100.0
73316;BME280;61545;53.726;-0.444;2023-04-26T23:07:57;1015.0;;;6.2;100.0
73316;BME280;61545;53.726;-0.444;2023-04-26T23:12:54;1015.0;;;6.1;100.0
73316;BME280;61545;53.726;-0.444;2023-04-26T23:17:56;1015.1;;;6.1;100.0
73316;BME280;61545;53.726;-0.444;2023-04-26T23:22:54;1015.1;;;6.2;100.0
73316;BME280;61545;53.726;-0.444;2023-04-26T23:27:54;1015.1;;;6.2;100.0
73316;BME280;61545;53.726;-0.444;2023-04-26T23:32:54;1015.0;;;6.3;100.0
73316;BME280;61545;53.726;-0.444;2023-04-26T23:37:54;1015.0;;;6.2;100.0
73316;BME280;61545;53.726;-0.444;2023-04-26T23:42:54;1015.0;;;6.4;100.0
73316;BME280;61545;53.726;-0.444;2023-04-26T23:47:54;1015.0;;;6.4;100.0
73316;BME280;61545;53.726;-0.444;2023-04-26T23:52:56;1015.0;;;6.3;100.0
73316;BME280;61545;53.726;-0.444;2023-04-26T23:58:09;1015.0;;;6.4;100.0
